sensor_id;sensor_type;location;lat;lon;timestamp;temperature;humidity
7325;DHT22;3703;48.016;7.802;2023-05-07T00:00:02;17.00;99.90
7325;DHT22;3703;48.016;7.802;2023-05-07T00:02:34;17.00;99.90
7325;DHT22;3703;48.016;7.802;2023-05-07T00:05:03;17.10;99.90
7325;DHT22;3703;48.016;7.802;2023-05-07T00:07:31;17.10;99.90
7325;DHT22;3703;48.016;7.802;2023-05-07T00:09:58;17.10;99.90
7325;DHT22;3703;48.016;7.802;2023-05-07T00:12:25;17.00;99.90
7325;DHT22;3703;48.016;7.802;2023-05-07T00:14:52;16.90;99.90
7325;DHT22;3703;48.016;7.802;2023-05-07T00:17:19;16.90;99.90
7325;DHT22;3703;48.016;7.802;2023-05-07T00:19:48;16.90;99.90
7325;DHT22;3703;48.016;7.802;2023-05-07T00:22:15;16.80;99.90
7325;DHT22;3703;48.016;7.802;2023-05-07T00:24:42;16.90;99.90
7325;DHT22;3703;48.016;7.802;2023-05-07T00:27:10;16.80;99.90
7325;DHT22;3703;48.016;7.802;2023-05-07T00:29:37;16.80;99.90
7325;DHT22;3703;48.016;7.802;2023-05-07T00:32:04;16.70;99.90
7325;DHT22;3703;48.016;7.802;2023-05-07T00:34:31;16.70;99.90
7325;DHT22;3703;48.016;7.802;2023-05-07T00:37:01;16.60;99.90
7325;DHT22;3703;48.016;7.802;2023-05-07T00:39:28;16.50;99.90
7325;DHT22;3703;48.016;7.802;2023-05-07T00:41:55;16.20;99.90
7325;DHT22;3703;48.016;7.802;2023-05-07T00:44:22;16.00;99.90
7325;DHT22;3703;48.016;7.802;2023-05-07T00:46:50;16.10;99.90
7325;DHT22;3703;48.016;7.802;2023-05-07T00:49:18;16.20;99.90
7325;DHT22;3703;48.016;7.802;2023-05-07T00:51:45;16.30;99.90
7325;DHT22;3703;48.016;7.802;2023-05-07T00:54:14;16.30;99.90
7325;DHT22;3703;48.016;7.802;2023-05-07T00:56:41;16.40;99.90
7325;DHT22;3703;48.016;7.802;2023-05-07T00:59:09;16.40;99.90
7325;DHT22;3703;48.016;7.802;2023-05-07T01:01:36;16.50;99.90
7325;DHT22;3703;48.016;7.802;2023-05-07T01:04:04;16.50;99.90
7325;DHT22;3703;48.016;7.802;2023-05-07T01:06:32;16.50;99.90
7325;DHT22;3703;48.016;7.802;2023-05-07T01:09:00;16.60;99.90
7325;DHT22;3703;48.016;7.802;2023-05-07T01:11:31;16.70;99.90
7325;DHT22;3703;48.016;7.802;2023-05-07T01:13:59;16.80;99.90
7325;DHT22;3703;48.016;7.802;2023-05-07T01:16:26;16.70;99.90
7325;DHT22;3703;48.016;7.802;2023-05-07T01:18:54;16.80;99.90
7325;DHT22;3703;48.016;7.802;2023-05-07T01:21:25;15.20;99.90
7325;DHT22;3703;48.016;7.802;2023-05-07T01:23:55;16.60;99.90
7325;DHT22;3703;48.016;7.802;2023-05-07T01:26:22;16.60;99.90
7325;DHT22;3703;48.016;7.802;2023-05-07T01:28:50;16.60;99.90
7325;DHT22;3703;48.016;7.802;2023-05-07T01:31:17;16.70;99.90
7325;DHT22;3703;48.016;7.802;2023-05-07T01:33:46;16.50;99.90
7325;DHT22;3703;48.016;7.802;2023-05-07T01:36:15;16.40;99.90
7325;DHT22;3703;48.016;7.802;2023-05-07T01:38:44;16.40;99.90
7325;DHT22;3703;48.016;7.802;2023-05-07T01:41:13;16.50;99.90
7325;DHT22;3703;48.016;7.802;2023-05-07T01:43:41;16.40;99.90
7325;DHT22;3703;48.016;7.802;2023-05-07T01:46:10;16.50;99.90
7325;DHT22;3703;48.016;7.802;2023-05-07T01:48:37;16.40;99.90
7325;DHT22;3703;48.016;7.802;2023-05-07T01:51:05;16.40;99.90
7325;DHT22;3703;48.016;7.802;2023-05-07T01:53:35;16.40;99.90
7325;DHT22;3703;48.016;7.802;2023-05-07T01:56:03;16.40;99.90
7325;DHT22;3703;48.016;7.802;2023-05-07T01:58:32;16.30;99.90
7325;DHT22;3703;48.016;7.802;2023-05-07T02:01:00;16.30;99.90
7325;DHT22;3703;48.016;7.802;2023-05-07T02:03:27;16.20;99.90
7325;DHT22;3703;48.016;7.802;2023-05-07T02:05:54;16.20;99.90
7325;DHT22;3703;48.016;7.802;2023-05-07T02:08:21;16.10;99.90
7325;DHT22;3703;48.016;7.802;2023-05-07T02:10:48;16.00;99.90
7325;DHT22;3703;48.016;7.802;2023-05-07T02:13:17;16.00;99.90
7325;DHT22;3703;48.016;7.802;2023-05-07T02:15:46;16.00;99.90
7325;DHT22;3703;48.016;7.802;2023-05-07T02:18:16;15.80;99.90
7325;DHT22;3703;48.016;7.802;2023-05-07T02:20:44;15.80;99.90
7325;DHT22;3703;48.016;7.802;2023-05-07T02:23:11;15.70;99.90
7325;DHT22;3703;48.016;7.802;2023-05-07T02:25:38;15.80;99.90
7325;DHT22;3703;48.016;7.802;2023-05-07T02:28:05;15.70;99.90
7325;DHT22;3703;48.016;7.802;2023-05-07T02:30:32;15.70;99.90
7325;DHT22;3703;48.016;7.802;2023-05-07T02:33:01;15.60;99.90
7325;DHT22;3703;48.016;7.802;2023-05-07T02:35:28;15.70;99.90
7325;DHT22;3703;48.016;7.802;2023-05-07T02:37:55;15.60;99.90
7325;DHT22;3703;48.016;7.802;2023-05-07T02:40:22;15.70;99.90
7325;DHT22;3703;48.016;7.802;2023-05-07T02:42:51;15.70;99.90
7325;DHT22;3703;48.016;7.802;2023-05-07T02:45:18;15.70;99.90
7325;DHT22;3703;48.016;7.802;2023-05-07T02:47:45;15.50;99.90
7325;DHT22;3703;48.016;7.802;2023-05-07T02:50:14;15.50;99.90
7325;DHT22;3703;48.016;7.802;2023-05-07T02:52:42;15.40;99.90
7325;DHT22;3703;48.016;7.802;2023-05-07T02:55:09;15.20;99.90
7325;DHT22;3703;48.016;7.802;2023-05-07T02:57:36;15.20;99.90
7325;DHT22;3703;48.016;7.802;2023-05-07T03:00:14;15.30;99.90
7325;DHT22;3703;48.016;7.802;2023-05-07T03:02:42;15.40;99.90
7325;DHT22;3703;48.016;7.802;2023-05-07T03:05:09;15.40;99.90
7325;DHT22;3703;48.016;7.802;2023-05-07T03:07:38;15.40;99.90
7325;DHT22;3703;48.016;7.802;2023-05-07T03:10:05;15.30;99.90
7325;DHT22;3703;48.016;7.802;2023-05-07T03:12:33;15.20;99.90
7325;DHT22;3703;48.016;7.802;2023-05-07T03:15:01;15.20;99.90
7325;DHT22;3703;48.016;7.802;2023-05-07T03:17:28;15.20;99.90
7325;DHT22;3703;48.016;7.802;2023-05-07T03:19:55;15.30;99.90
7325;DHT22;3703;48.016;7.802;2023-05-07T03:22:22;15.30;99.90
7325;DHT22;3703;48.016;7.802;2023-05-07T03:24:51;15.20;99.90
7325;DHT22;3703;48.016;7.802;2023-05-07T03:27:18;15.30;99.90
7325;DHT22;3703;48.016;7.802;2023-05-07T03:29:45;15.30;99.90
7325;DHT22;3703;48.016;7.802;2023-05-07T03:32:12;15.20;99.90
7325;DHT22;3703;48.016;7.802;2023-05-07T03:34:40;15.10;99.90
7325;DHT22;3703;48.016;7.802;2023-05-07T03:37:07;15.10;99.90
7325;DHT22;3703;48.016;7.802;2023-05-07T03:39:34;15.20;99.90
7325;DHT22;3703;48.016;7.802;2023-05-07T03:42:02;15.10;99.90
7325;DHT22;3703;48.016;7.802;2023-05-07T03:44:30;15.10;99.90
7325;DHT22;3703;48.016;7.802;2023-05-07T03:46:57;15.00;99.90
7325;DHT22;3703;48.016;7.802;2023-05-07T03:49:24;15.00;99.90
7325;DHT22;3703;48.016;7.802;2023-05-07T03:51:51;15.00;99.90
7325;DHT22;3703;48.016;7.802;2023-05-07T03:54:18;15.00;99.90
7325;DHT22;3703;48.016;7.802;2023-05-07T03:56:46;15.10;99.90
7325;DHT22;3703;48.016;7.802;2023-05-07T03:59:14;15.00;99.90
7325;DHT22;3703;48.016;7.802;2023-05-07T04:01:41;14.90;99.90
7325;DHT22;3703;48.016;7.802;2023-05-07T04:04:09;14.80;99.90
7325;DHT22;3703;48.016;7.802;2023-05-07T04:06:36;14.80;99.90
7325;DHT22;3703;48.016;7.802;2023-05-07T04:09:04;14.80;99.90
7325;DHT22;3703;48.016;7.802;2023-05-07T04:11:32;14.80;99.90
7325;DHT22;3703;48.016;7.802;2023-05-07T04:13:59;14.80;99.90
7325;DHT22;3703;48.016;7.802;2023-05-07T04:16:27;14.80;99.90
7325;DHT22;3703;48.016;7.802;2023-05-07T04:18:55;15.00;99.90
7325;DHT22;3703;48.016;7.802;2023-05-07T04:21:22;15.00;99.90
7325;DHT22;3703;48.016;7.802;2023-05-07T04:23:49;15.00;99.90
7325;DHT22;3703;48.016;7.802;2023-05-07T04:26:16;15.10;99.90
7325;DHT22;3703;48.016;7.802;2023-05-07T04:28:43;15.80;40.00
7325;DHT22;3703;48.016;7.802;2023-05-07T04:31:11;15.80;1.00
7325;DHT22;3703;48.016;7.802;2023-05-07T04:33:39;15.80;1.00
7325;DHT22;3703;48.016;7.802;2023-05-07T04:36:07;16.00;1.00
7325;DHT22;3703;48.016;7.802;2023-05-07T04:38:34;16.50;1.00
7325;DHT22;3703;48.016;7.802;2023-05-07T04:41:03;16.80;1.00
7325;DHT22;3703;48.016;7.802;2023-05-07T04:43:31;17.10;1.00
7325;DHT22;3703;48.016;7.802;2023-05-07T04:45:58;17.40;1.00
7325;DHT22;3703;48.016;7.802;2023-05-07T04:48:26;17.70;1.00
7325;DHT22;3703;48.016;7.802;2023-05-07T04:50:55;17.70;1.00
7325;DHT22;3703;48.016;7.802;2023-05-07T04:53:23;17.80;1.00
7325;DHT22;3703;48.016;7.802;2023-05-07T04:55:55;17.90;1.00
7325;DHT22;3703;48.016;7.802;2023-05-07T04:58:23;18.10;1.00
7325;DHT22;3703;48.016;7.802;2023-05-07T05:00:50;18.20;1.00
7325;DHT22;3703;48.016;7.802;2023-05-07T05:03:17;18.30;1.00
7325;DHT22;3703;48.016;7.802;2023-05-07T05:05:45;18.30;1.00
7325;DHT22;3703;48.016;7.802;2023-05-07T05:08:13;18.40;1.00
7325;DHT22;3703;48.016;7.802;2023-05-07T05:10:40;18.50;1.00
7325;DHT22;3703;48.016;7.802;2023-05-07T05:13:08;18.50;1.00
7325;DHT22;3703;48.016;7.802;2023-05-07T05:15:38;18.50;1.00
7325;DHT22;3703;48.016;7.802;2023-05-07T05:18:05;17.80;1.00
7325;DHT22;3703;48.016;7.802;2023-05-07T05:20:32;18.10;1.00
7325;DHT22;3703;48.016;7.802;2023-05-07T05:22:59;18.20;1.00
7325;DHT22;3703;48.016;7.802;2023-05-07T05:25:28;19.50;1.00
7325;DHT22;3703;48.016;7.802;2023-05-07T05:27:55;17.90;1.00
7325;DHT22;3703;48.016;7.802;2023-05-07T05:30:22;17.60;1.00
7325;DHT22;3703;48.016;7.802;2023-05-07T05:32:49;16.00;1.00
7325;DHT22;3703;48.016;7.802;2023-05-07T05:35:16;15.40;1.00
7325;DHT22;3703;48.016;7.802;2023-05-07T05:37:44;16.00;1.00
7325;DHT22;3703;48.016;7.802;2023-05-07T05:40:11;16.90;1.00
7325;DHT22;3703;48.016;7.802;2023-05-07T05:42:40;17.30;1.00
7325;DHT22;3703;48.016;7.802;2023-05-07T05:45:09;17.00;1.00
7325;DHT22;3703;48.016;7.802;2023-05-07T05:47:37;15.90;1.00
7325;DHT22;3703;48.016;7.802;2023-05-07T05:50:05;17.40;1.00
7325;DHT22;3703;48.016;7.802;2023-05-07T05:52:33;17.40;1.00
7325;DHT22;3703;48.016;7.802;2023-05-07T05:55:00;17.90;1.00
7325;DHT22;3703;48.016;7.802;2023-05-07T05:57:27;17.60;1.00
7325;DHT22;3703;48.016;7.802;2023-05-07T05:59:56;17.60;1.00
7325;DHT22;3703;48.016;7.802;2023-05-07T06:02:23;17.90;1.00
7325;DHT22;3703;48.016;7.802;2023-05-07T06:04:50;17.30;1.00
7325;DHT22;3703;48.016;7.802;2023-05-07T06:07:18;17.00;1.00
7325;DHT22;3703;48.016;7.802;2023-05-07T06:09:45;18.20;1.00
7325;DHT22;3703;48.016;7.802;2023-05-07T06:12:12;17.50;1.00
7325;DHT22;3703;48.016;7.802;2023-05-07T06:14:39;16.90;1.00
7325;DHT22;3703;48.016;7.802;2023-05-07T06:17:08;17.00;1.00
7325;DHT22;3703;48.016;7.802;2023-05-07T06:19:35;17.30;1.00
7325;DHT22;3703;48.016;7.802;2023-05-07T06:22:02;17.40;1.00
7325;DHT22;3703;48.016;7.802;2023-05-07T06:24:29;17.90;1.00
7325;DHT22;3703;48.016;7.802;2023-05-07T06:26:57;17.80;1.00
7325;DHT22;3703;48.016;7.802;2023-05-07T06:29:25;18.20;1.00
7325;DHT22;3703;48.016;7.802;2023-05-07T06:31:52;18.40;1.00
7325;DHT22;3703;48.016;7.802;2023-05-07T06:34:21;18.70;1.00
7325;DHT22;3703;48.016;7.802;2023-05-07T06:36:48;18.30;1.00
7325;DHT22;3703;48.016;7.802;2023-05-07T06:39:15;18.40;1.00
7325;DHT22;3703;48.016;7.802;2023-05-07T06:41:42;18.50;1.00
7325;DHT22;3703;48.016;7.802;2023-05-07T06:44:09;18.60;1.00
7325;DHT22;3703;48.016;7.802;2023-05-07T06:46:36;18.50;1.00
7325;DHT22;3703;48.016;7.802;2023-05-07T06:49:03;18.70;1.00
7325;DHT22;3703;48.016;7.802;2023-05-07T06:51:32;18.60;1.00
7325;DHT22;3703;48.016;7.802;2023-05-07T06:53:59;18.70;1.00
7325;DHT22;3703;48.016;7.802;2023-05-07T06:56:26;18.30;1.00
7325;DHT22;3703;48.016;7.802;2023-05-07T06:58:53;18.20;1.00
7325;DHT22;3703;48.016;7.802;2023-05-07T07:01:20;18.20;1.00
7325;DHT22;3703;48.016;7.802;2023-05-07T07:03:48;18.40;1.00
7325;DHT22;3703;48.016;7.802;2023-05-07T07:06:16;18.70;1.00
7325;DHT22;3703;48.016;7.802;2023-05-07T07:08:45;18.50;1.00
7325;DHT22;3703;48.016;7.802;2023-05-07T07:11:12;19.40;1.00
7325;DHT22;3703;48.016;7.802;2023-05-07T07:13:39;19.20;1.00
7325;DHT22;3703;48.016;7.802;2023-05-07T07:16:06;19.20;1.00
7325;DHT22;3703;48.016;7.802;2023-05-07T07:18:33;18.50;1.00
7325;DHT22;3703;48.016;7.802;2023-05-07T07:21:01;18.50;1.00
7325;DHT22;3703;48.016;7.802;2023-05-07T07:23:28;19.00;1.00
7325;DHT22;3703;48.016;7.802;2023-05-07T07:25:57;19.50;1.00
7325;DHT22;3703;48.016;7.802;2023-05-07T07:28:24;19.60;1.00
7325;DHT22;3703;48.016;7.802;2023-05-07T07:30:51;19.50;1.00
7325;DHT22;3703;48.016;7.802;2023-05-07T07:33:19;19.60;1.00
7325;DHT22;3703;48.016;7.802;2023-05-07T07:35:46;19.60;1.00
7325;DHT22;3703;48.016;7.802;2023-05-07T07:38:13;19.90;1.00
7325;DHT22;3703;48.016;7.802;2023-05-07T07:40:40;20.00;1.00
7325;DHT22;3703;48.016;7.802;2023-05-07T07:43:10;20.30;1.00
7325;DHT22;3703;48.016;7.802;2023-05-07T07:45:37;20.60;1.00
7325;DHT22;3703;48.016;7.802;2023-05-07T07:48:05;20.20;99.90
7325;DHT22;3703;48.016;7.802;2023-05-07T07:50:32;20.20;99.90
7325;DHT22;3703;48.016;7.802;2023-05-07T07:52:59;20.30;1.00
7325;DHT22;3703;48.016;7.802;2023-05-07T07:55:27;20.60;1.00
7325;DHT22;3703;48.016;7.802;2023-05-07T07:57:54;20.50;99.90
7325;DHT22;3703;48.016;7.802;2023-05-07T08:00:23;20.70;99.90
7325;DHT22;3703;48.016;7.802;2023-05-07T08:02:50;21.00;99.90
7325;DHT22;3703;48.016;7.802;2023-05-07T08:05:17;21.00;99.90
7325;DHT22;3703;48.016;7.802;2023-05-07T08:07:45;21.00;99.90
7325;DHT22;3703;48.016;7.802;2023-05-07T08:10:17;21.40;99.90
7325;DHT22;3703;48.016;7.802;2023-05-07T08:12:47;20.70;99.90
7325;DHT22;3703;48.016;7.802;2023-05-07T08:15:14;20.50;99.90
7325;DHT22;3703;48.016;7.802;2023-05-07T08:17:43;20.40;99.90
7325;DHT22;3703;48.016;7.802;2023-05-07T08:20:10;21.00;99.90
7325;DHT22;3703;48.016;7.802;2023-05-07T08:22:38;21.00;99.90
7325;DHT22;3703;48.016;7.802;2023-05-07T08:25:06;20.60;99.90
7325;DHT22;3703;48.016;7.802;2023-05-07T08:27:33;20.90;99.90
7325;DHT22;3703;48.016;7.802;2023-05-07T08:30:00;21.20;99.90
7325;DHT22;3703;48.016;7.802;2023-05-07T08:32:28;21.50;99.90
7325;DHT22;3703;48.016;7.802;2023-05-07T08:34:56;21.50;1.00
7325;DHT22;3703;48.016;7.802;2023-05-07T08:37:23;21.60;1.00
7325;DHT22;3703;48.016;7.802;2023-05-07T08:39:50;21.80;55.40
7325;DHT22;3703;48.016;7.802;2023-05-07T08:42:18;21.10;99.90
7325;DHT22;3703;48.016;7.802;2023-05-07T08:44:48;21.20;99.90
7325;DHT22;3703;48.016;7.802;2023-05-07T08:47:18;20.10;1.00
7325;DHT22;3703;48.016;7.802;2023-05-07T08:49:46;19.50;1.00
7325;DHT22;3703;48.016;7.802;2023-05-07T08:52:15;19.40;1.00
7325;DHT22;3703;48.016;7.802;2023-05-07T08:54:43;20.30;1.00
7325;DHT22;3703;48.016;7.802;2023-05-07T08:57:10;19.60;1.00
7325;DHT22;3703;48.016;7.802;2023-05-07T08:59:37;19.90;1.00
7325;DHT22;3703;48.016;7.802;2023-05-07T09:02:06;19.80;1.00
7325;DHT22;3703;48.016;7.802;2023-05-07T09:04:36;20.00;1.00
7325;DHT22;3703;48.016;7.802;2023-05-07T09:07:03;20.30;1.00
7325;DHT22;3703;48.016;7.802;2023-05-07T09:09:33;20.40;1.00
7325;DHT22;3703;48.016;7.802;2023-05-07T09:12:00;20.30;1.00
7325;DHT22;3703;48.016;7.802;2023-05-07T09:14:29;20.40;1.00
7325;DHT22;3703;48.016;7.802;2023-05-07T09:16:56;21.00;1.00
7325;DHT22;3703;48.016;7.802;2023-05-07T09:19:24;21.00;1.00
7325;DHT22;3703;48.016;7.802;2023-05-07T09:21:58;21.20;1.00
7325;DHT22;3703;48.016;7.802;2023-05-07T09:24:26;21.30;1.00
7325;DHT22;3703;48.016;7.802;2023-05-07T09:26:57;20.60;1.00
7325;DHT22;3703;48.016;7.802;2023-05-07T09:29:25;20.40;1.00
7325;DHT22;3703;48.016;7.802;2023-05-07T09:31:54;20.60;1.00
7325;DHT22;3703;48.016;7.802;2023-05-07T09:34:21;20.70;1.00
7325;DHT22;3703;48.016;7.802;2023-05-07T09:36:49;20.90;1.00
7325;DHT22;3703;48.016;7.802;2023-05-07T09:39:16;20.50;1.00
7325;DHT22;3703;48.016;7.802;2023-05-07T09:41:44;20.20;1.00
7325;DHT22;3703;48.016;7.802;2023-05-07T09:44:13;20.30;1.00
7325;DHT22;3703;48.016;7.802;2023-05-07T09:46:42;20.60;1.00
7325;DHT22;3703;48.016;7.802;2023-05-07T09:49:21;20.70;1.00
7325;DHT22;3703;48.016;7.802;2023-05-07T09:51:50;20.70;1.00
7325;DHT22;3703;48.016;7.802;2023-05-07T09:54:18;20.50;1.00
7325;DHT22;3703;48.016;7.802;2023-05-07T09:56:45;20.70;1.00
7325;DHT22;3703;48.016;7.802;2023-05-07T09:59:16;20.50;1.00
7325;DHT22;3703;48.016;7.802;2023-05-07T10:01:44;20.40;1.00
7325;DHT22;3703;48.016;7.802;2023-05-07T10:04:12;20.20;1.00
7325;DHT22;3703;48.016;7.802;2023-05-07T10:06:41;20.00;1.00
7325;DHT22;3703;48.016;7.802;2023-05-07T10:09:09;19.90;1.00
7325;DHT22;3703;48.016;7.802;2023-05-07T10:11:37;19.80;1.00
7325;DHT22;3703;48.016;7.802;2023-05-07T10:14:04;19.50;1.00
7325;DHT22;3703;48.016;7.802;2023-05-07T10:16:34;18.90;1.00
7325;DHT22;3703;48.016;7.802;2023-05-07T10:19:02;18.90;1.00
7325;DHT22;3703;48.016;7.802;2023-05-07T10:21:30;18.60;1.00
7325;DHT22;3703;48.016;7.802;2023-05-07T10:24:00;18.30;1.00
7325;DHT22;3703;48.016;7.802;2023-05-07T10:26:35;18.30;1.00
7325;DHT22;3703;48.016;7.802;2023-05-07T10:29:07;18.30;1.00
7325;DHT22;3703;48.016;7.802;2023-05-07T10:31:52;18.20;1.00
7325;DHT22;3703;48.016;7.802;2023-05-07T10:34:26;17.90;1.00
7325;DHT22;3703;48.016;7.802;2023-05-07T10:36:56;18.00;1.00
7325;DHT22;3703;48.016;7.802;2023-05-07T10:39:24;17.90;1.00
7325;DHT22;3703;48.016;7.802;2023-05-07T10:41:51;17.90;10.60
7325;DHT22;3703;48.016;7.802;2023-05-07T10:44:28;17.70;12.40
7325;DHT22;3703;48.016;7.802;2023-05-07T10:47:07;17.60;13.30
7325;DHT22;3703;48.016;7.802;2023-05-07T10:49:36;17.70;20.60
7325;DHT22;3703;48.016;7.802;2023-05-07T10:52:15;17.90;20.90
7325;DHT22;3703;48.016;7.802;2023-05-07T10:54:43;18.40;1.00
7325;DHT22;3703;48.016;7.802;2023-05-07T10:57:33;18.80;1.00
7325;DHT22;3703;48.016;7.802;2023-05-07T11:00:01;19.10;1.00
7325;DHT22;3703;48.016;7.802;2023-05-07T11:05:34;19.00;1.00
7325;DHT22;3703;48.016;7.802;2023-05-07T11:08:03;19.10;1.00
7325;DHT22;3703;48.016;7.802;2023-05-07T11:10:49;19.20;1.00
7325;DHT22;3703;48.016;7.802;2023-05-07T11:13:40;19.60;1.00
7325;DHT22;3703;48.016;7.802;2023-05-07T11:16:17;19.90;1.00
7325;DHT22;3703;48.016;7.802;2023-05-07T11:18:50;20.30;1.00
7325;DHT22;3703;48.016;7.802;2023-05-07T11:21:35;20.50;1.00
7325;DHT22;3703;48.016;7.802;2023-05-07T11:24:04;21.00;1.00
7325;DHT22;3703;48.016;7.802;2023-05-07T11:26:42;21.70;99.90
7325;DHT22;3703;48.016;7.802;2023-05-07T11:29:12;22.40;99.90
7325;DHT22;3703;48.016;7.802;2023-05-07T11:31:43;21.70;99.90
7325;DHT22;3703;48.016;7.802;2023-05-07T11:34:12;21.50;99.90
7325;DHT22;3703;48.016;7.802;2023-05-07T11:36:42;21.70;99.90
7325;DHT22;3703;48.016;7.802;2023-05-07T11:39:26;22.20;99.90
7325;DHT22;3703;48.016;7.802;2023-05-07T11:41:55;22.10;99.90
7325;DHT22;3703;48.016;7.802;2023-05-07T11:44:22;21.60;99.90
7325;DHT22;3703;48.016;7.802;2023-05-07T11:46:49;21.90;99.90
7325;DHT22;3703;48.016;7.802;2023-05-07T11:49:18;22.40;99.90
7325;DHT22;3703;48.016;7.802;2023-05-07T11:51:46;22.80;99.90
7325;DHT22;3703;48.016;7.802;2023-05-07T11:54:16;23.30;99.90
7325;DHT22;3703;48.016;7.802;2023-05-07T11:56:44;23.50;99.90
7325;DHT22;3703;48.016;7.802;2023-05-07T11:59:17;23.60;99.90
7325;DHT22;3703;48.016;7.802;2023-05-07T12:01:46;23.90;99.90
7325;DHT22;3703;48.016;7.802;2023-05-07T12:04:13;24.00;99.90
7325;DHT22;3703;48.016;7.802;2023-05-07T12:06:42;24.10;99.90
7325;DHT22;3703;48.016;7.802;2023-05-07T12:09:09;24.00;99.90
7325;DHT22;3703;48.016;7.802;2023-05-07T12:11:37;24.30;99.90
7325;DHT22;3703;48.016;7.802;2023-05-07T12:14:06;24.50;99.90
7325;DHT22;3703;48.016;7.802;2023-05-07T12:16:33;24.70;99.90
7325;DHT22;3703;48.016;7.802;2023-05-07T12:19:01;24.50;99.90
7325;DHT22;3703;48.016;7.802;2023-05-07T12:21:29;24.30;99.90
7325;DHT22;3703;48.016;7.802;2023-05-07T12:23:58;23.90;99.90
7325;DHT22;3703;48.016;7.802;2023-05-07T12:26:26;23.30;99.90
7325;DHT22;3703;48.016;7.802;2023-05-07T12:28:53;23.70;99.90
7325;DHT22;3703;48.016;7.802;2023-05-07T12:31:20;24.20;99.90
7325;DHT22;3703;48.016;7.802;2023-05-07T12:33:47;24.30;99.90
7325;DHT22;3703;48.016;7.802;2023-05-07T12:36:15;24.60;99.90
7325;DHT22;3703;48.016;7.802;2023-05-07T12:38:42;24.90;99.90
7325;DHT22;3703;48.016;7.802;2023-05-07T12:41:10;25.00;99.90
7325;DHT22;3703;48.016;7.802;2023-05-07T12:43:38;23.00;99.90
7325;DHT22;3703;48.016;7.802;2023-05-07T12:46:07;21.80;99.90
7325;DHT22;3703;48.016;7.802;2023-05-07T12:48:36;21.10;99.90
7325;DHT22;3703;48.016;7.802;2023-05-07T12:51:05;21.50;99.90
7325;DHT22;3703;48.016;7.802;2023-05-07T12:53:33;22.10;99.90
7325;DHT22;3703;48.016;7.802;2023-05-07T12:56:02;22.00;99.90
7325;DHT22;3703;48.016;7.802;2023-05-07T12:58:35;21.40;99.90
7325;DHT22;3703;48.016;7.802;2023-05-07T13:01:05;21.70;99.90
7325;DHT22;3703;48.016;7.802;2023-05-07T13:03:34;21.20;99.90
7325;DHT22;3703;48.016;7.802;2023-05-07T13:06:06;21.00;99.90
7325;DHT22;3703;48.016;7.802;2023-05-07T13:08:36;21.20;99.90
7325;DHT22;3703;48.016;7.802;2023-05-07T13:11:08;21.90;99.90
7325;DHT22;3703;48.016;7.802;2023-05-07T13:13:38;22.30;99.90
7325;DHT22;3703;48.016;7.802;2023-05-07T13:16:08;22.60;99.90
7325;DHT22;3703;48.016;7.802;2023-05-07T13:18:37;21.80;99.90
7325;DHT22;3703;48.016;7.802;2023-05-07T13:21:05;21.70;99.90
7325;DHT22;3703;48.016;7.802;2023-05-07T13:23:33;21.90;99.90
7325;DHT22;3703;48.016;7.802;2023-05-07T13:26:00;21.90;99.90
7325;DHT22;3703;48.016;7.802;2023-05-07T13:28:27;21.70;99.90
7325;DHT22;3703;48.016;7.802;2023-05-07T13:30:56;21.70;99.90
7325;DHT22;3703;48.016;7.802;2023-05-07T13:33:23;22.20;99.90
7325;DHT22;3703;48.016;7.802;2023-05-07T13:35:50;22.20;99.90
7325;DHT22;3703;48.016;7.802;2023-05-07T13:38:18;22.40;99.90
7325;DHT22;3703;48.016;7.802;2023-05-07T13:40:45;22.50;99.90
7325;DHT22;3703;48.016;7.802;2023-05-07T13:43:12;22.70;99.90
7325;DHT22;3703;48.016;7.802;2023-05-07T13:45:40;22.30;99.90
7325;DHT22;3703;48.016;7.802;2023-05-07T13:48:08;22.80;99.90
7325;DHT22;3703;48.016;7.802;2023-05-07T13:50:35;23.00;99.90
7325;DHT22;3703;48.016;7.802;2023-05-07T13:53:02;22.80;99.90
7325;DHT22;3703;48.016;7.802;2023-05-07T13:55:30;23.40;99.90
7325;DHT22;3703;48.016;7.802;2023-05-07T13:57:58;23.70;99.90
7325;DHT22;3703;48.016;7.802;2023-05-07T14:00:27;23.70;99.90
7325;DHT22;3703;48.016;7.802;2023-05-07T14:02:55;24.00;99.90
7325;DHT22;3703;48.016;7.802;2023-05-07T14:05:24;24.40;99.90
7325;DHT22;3703;48.016;7.802;2023-05-07T14:07:53;24.60;99.90
7325;DHT22;3703;48.016;7.802;2023-05-07T14:10:22;24.80;99.90
7325;DHT22;3703;48.016;7.802;2023-05-07T14:12:49;24.90;99.90
7325;DHT22;3703;48.016;7.802;2023-05-07T14:15:16;24.50;99.90
7325;DHT22;3703;48.016;7.802;2023-05-07T14:17:44;24.30;99.90
7325;DHT22;3703;48.016;7.802;2023-05-07T14:20:12;24.50;99.90
7325;DHT22;3703;48.016;7.802;2023-05-07T14:22:41;24.30;99.90
7325;DHT22;3703;48.016;7.802;2023-05-07T14:25:08;24.70;99.90
7325;DHT22;3703;48.016;7.802;2023-05-07T14:27:36;24.70;99.90
7325;DHT22;3703;48.016;7.802;2023-05-07T14:30:04;24.90;99.90
7325;DHT22;3703;48.016;7.802;2023-05-07T14:32:32;25.20;99.90
7325;DHT22;3703;48.016;7.802;2023-05-07T14:34:59;25.70;99.90
7325;DHT22;3703;48.016;7.802;2023-05-07T14:37:26;25.60;99.90
7325;DHT22;3703;48.016;7.802;2023-05-07T14:39:55;25.90;99.90
7325;DHT22;3703;48.016;7.802;2023-05-07T14:42:22;25.90;99.90
7325;DHT22;3703;48.016;7.802;2023-05-07T14:44:49;26.10;99.90
7325;DHT22;3703;48.016;7.802;2023-05-07T14:47:18;25.60;99.90
7325;DHT22;3703;48.016;7.802;2023-05-07T14:49:45;25.50;99.90
7325;DHT22;3703;48.016;7.802;2023-05-07T14:52:12;25.10;99.90
7325;DHT22;3703;48.016;7.802;2023-05-07T14:54:40;24.50;99.90
7325;DHT22;3703;48.016;7.802;2023-05-07T14:57:09;24.50;99.90
7325;DHT22;3703;48.016;7.802;2023-05-07T14:59:39;24.40;99.90
7325;DHT22;3703;48.016;7.802;2023-05-07T15:02:07;24.60;99.90
7325;DHT22;3703;48.016;7.802;2023-05-07T15:04:34;25.00;99.90
7325;DHT22;3703;48.016;7.802;2023-05-07T15:07:01;24.70;99.90
7325;DHT22;3703;48.016;7.802;2023-05-07T15:09:29;24.90;99.90
7325;DHT22;3703;48.016;7.802;2023-05-07T15:11:56;25.10;99.90
7325;DHT22;3703;48.016;7.802;2023-05-07T15:14:25;25.40;99.90
7325;DHT22;3703;48.016;7.802;2023-05-07T15:16:52;25.80;99.90
7325;DHT22;3703;48.016;7.802;2023-05-07T15:19:19;25.90;99.90
7325;DHT22;3703;48.016;7.802;2023-05-07T15:21:47;25.90;99.90
7325;DHT22;3703;48.016;7.802;2023-05-07T15:24:15;26.00;99.90
7325;DHT22;3703;48.016;7.802;2023-05-07T15:26:42;26.10;99.90
7325;DHT22;3703;48.016;7.802;2023-05-07T15:29:09;26.00;99.90
7325;DHT22;3703;48.016;7.802;2023-05-07T15:31:38;25.50;99.90
7325;DHT22;3703;48.016;7.802;2023-05-07T15:34:05;24.80;99.90
7325;DHT22;3703;48.016;7.802;2023-05-07T15:36:32;24.70;99.90
7325;DHT22;3703;48.016;7.802;2023-05-07T15:38:59;25.00;99.90
7325;DHT22;3703;48.016;7.802;2023-05-07T15:41:28;25.00;99.90
7325;DHT22;3703;48.016;7.802;2023-05-07T15:43:55;25.20;99.90
7325;DHT22;3703;48.016;7.802;2023-05-07T15:46:24;24.30;99.90
7325;DHT22;3703;48.016;7.802;2023-05-07T15:48:53;23.50;99.90
7325;DHT22;3703;48.016;7.802;2023-05-07T15:51:21;22.40;99.90
7325;DHT22;3703;48.016;7.802;2023-05-07T15:53:49;22.90;99.90
7325;DHT22;3703;48.016;7.802;2023-05-07T15:56:17;22.70;99.90
7325;DHT22;3703;48.016;7.802;2023-05-07T15:58:45;23.00;99.90
7325;DHT22;3703;48.016;7.802;2023-05-07T16:01:14;23.50;99.90
7325;DHT22;3703;48.016;7.802;2023-05-07T16:03:41;22.80;99.90
7325;DHT22;3703;48.016;7.802;2023-05-07T16:06:10;22.90;99.90
7325;DHT22;3703;48.016;7.802;2023-05-07T16:08:37;22.80;99.90
7325;DHT22;3703;48.016;7.802;2023-05-07T16:11:05;22.10;99.90
7325;DHT22;3703;48.016;7.802;2023-05-07T16:13:33;21.80;99.90
7325;DHT22;3703;48.016;7.802;2023-05-07T16:16:01;21.90;99.90